Mae De Jesus — CULK8 — position and weather

sailwx.info

Track history (hours):
 
Tides and Currents Weather Stations Pressure Air Temp Water Temp Dewpoint Dewpoint Depression Visibility Wind Speed Wind Dir Waves Ship Positions

Mae De Jesus

Last reported at 2017-Dec-18 00:01 UTC. Time now 2017-Dec-18 03:16 UTC.
Position N 38°25' W 009°13'.

Length 15 m.

Type: Fishing. MMSI: 263410850.

Date/timePositionNaut miles runAvg speedWind from/ knotsBaromVisibWave heightAir tempDewpointWater temp
2017-Dec-18 00:01N 38°25' W 009°13'0 9.0
2017-Dec-18 00:00N 38°25' W 009°13'5 8.6
2017-Dec-17 23:27N 38°25' W 009°07'4 8.5
2017-Dec-17 23:01N 38°26' W 009°03'4 8.0
2017-Dec-17 22:30N 38°28' W 008°58'4 7.4
2017-Dec-17 21:58N 38°31' W 008°55'  
2017-Dec-14 16:49N 38°28' W 008°56'23 1.1
2017-Dec-13 20:02N 38°37' W 009°23'0 8.4
2017-Dec-13 20:00N 38°37' W 009°23'4 8.3
2017-Dec-13 19:29N 38°34' W 009°20'4 8.2
2017-Dec-13 19:00N 38°30' W 009°17'4 8.2
2017-Dec-13 18:28N 38°26' W 009°15'6 7.2
2017-Dec-13 17:37N 38°25' W 009°07'1 8.1
2017-Dec-13 17:27N 38°25' W 009°05'3 7.8
2017-Dec-13 17:00N 38°26' W 009°01'4 8.4
2017-Dec-13 16:30N 38°29' W 008°57'12 0.5
2017-Dec-12 18:08N 38°19' W 008°49'2 8.7
2017-Dec-12 17:55N 38°20' W 008°51'5 8.9
2017-Dec-12 17:23N 38°24' W 008°54'4 8.7
2017-Dec-12 16:59N 38°27' W 008°56'2 0.1
2017-Dec-12 02:57N 38°29' W 008°56'3 0.3
2017-Dec-11 18:14N 38°27' W 008°58'2 7.4
2017-Dec-11 17:59N 38°28' W 008°57'  
Track history (hours):
 
Tides and Currents Weather Stations Pressure Air Temp Water Temp Dewpoint Dewpoint Depression Visibility Wind Speed Wind Dir Waves Ship Positions

Mae De Jesus

Last reported at 2017-Dec-18 00:01 UTC. Time now 2017-Dec-18 03:16 UTC.
Position N 38°25' W 009°13'.

Length 15 m.

Type: Fishing. MMSI: 263410850.

Date/timePositionNaut miles runAvg speedWind from/ knotsBaromVisibWave heightAir tempDewpointWater temp
2017-Dec-18 00:01N 38°25' W 009°13'0 9.0
2017-Dec-18 00:00N 38°25' W 009°13'5 8.6
2017-Dec-17 23:27N 38°25' W 009°07'4 8.5
2017-Dec-17 23:01N 38°26' W 009°03'4 8.0
2017-Dec-17 22:30N 38°28' W 008°58'4 7.4
2017-Dec-17 21:58N 38°31' W 008°55'  
2017-Dec-14 16:49N 38°28' W 008°56'23 1.1
2017-Dec-13 20:02N 38°37' W 009°23'0 8.4
2017-Dec-13 20:00N 38°37' W 009°23'4 8.3
2017-Dec-13 19:29N 38°34' W 009°20'4 8.2
2017-Dec-13 19:00N 38°30' W 009°17'4 8.2
2017-Dec-13 18:28N 38°26' W 009°15'6 7.2
2017-Dec-13 17:37N 38°25' W 009°07'1 8.1
2017-Dec-13 17:27N 38°25' W 009°05'3 7.8
2017-Dec-13 17:00N 38°26' W 009°01'4 8.4
2017-Dec-13 16:30N 38°29' W 008°57'12 0.5
2017-Dec-12 18:08N 38°19' W 008°49'2 8.7
2017-Dec-12 17:55N 38°20' W 008°51'5 8.9
2017-Dec-12 17:23N 38°24' W 008°54'4 8.7
2017-Dec-12 16:59N 38°27' W 008°56'2 0.1
2017-Dec-12 02:57N 38°29' W 008°56'3 0.3
2017-Dec-11 18:14N 38°27' W 008°58'2 7.4
2017-Dec-11 17:59N 38°28' W 008°57'  

Dump ship's entire track history